Time;durP1;ratioP1;P1;durP2;ratioP2;P2;SDS_P1;SDS_P2;PMS_P1;PMS_P2;Temp;Humidity;BMP_temperature;BMP_pressure;BME280_temperature;BME280_humidity;BME280_pressure;Samples;Min_cycle;Max_cycle;Signal;HPM_P1;HPM_P2
2022/06/14 00:00:53;;;;;;;2.70;1.30;;;;;;;9.23;84.69;101571.73;107253;1282;61321;-79
2022/06/14 00:02:22;;;;;;;7.80;1.80;;;;;;;9.18;84.73;101573.79;107344;1280;60313;-80
2022/06/14 00:04:50;;;;;;;7.50;2.10;;;;;;;9.14;85.45;101571.52;107618;1279;76504;-79
2022/06/14 00:07:17;;;;;;;3.90;1.20;;;;;;;9.12;85.77;101575.62;107565;1279;71442;-80
2022/06/14 00:09:44;;;;;;;6.20;1.60;;;;;;;9.08;85.72;101577.25;107262;1282;74080;-80
2022/06/14 00:12:13;;;;;;;4.60;1.50;;;;;;;9.05;85.97;101578.42;107512;1279;62545;-80
2022/06/14 00:14:41;;;;;;;4.00;1.90;;;;;;;9.00;85.96;101579.18;107250;1280;61855;-80
2022/06/14 00:17:08;;;;;;;3.80;2.20;;;;;;;8.96;86.09;101580.55;107739;1279;74021;-80
2022/06/14 00:19:35;;;;;;;7.70;2.30;;;;;;;8.92;86.74;101578.64;107501;1279;71293;-80
2022/06/14 00:22:03;;;;;;;6.90;2.20;;;;;;;8.89;86.62;101579.15;107502;1279;73104;-80
2022/06/14 00:24:31;;;;;;;5.50;2.30;;;;;;;8.86;86.65;101577.70;107376;1280;62206;-80
2022/06/14 00:26:58;;;;;;;6.30;2.20;;;;;;;8.82;87.04;101574.31;107618;1279;62094;-80
2022/06/14 00:29:25;;;;;;;10.20;1.90;;;;;;;8.79;87.57;101582.52;107560;1279;76080;-80
2022/06/14 00:31:52;;;;;;;6.00;1.90;;;;;;;8.77;87.70;101585.02;107599;1279;72593;-79
2022/06/14 00:34:19;;;;;;;5.40;2.20;;;;;;;8.73;87.90;101584.45;107571;1279;71702;-80
2022/06/14 00:36:53;;;;;;;4.30;1.90;;;;;;;8.70;87.91;101587.77;107665;1281;61505;-80
2022/06/14 00:39:19;;;;;;;7.00;2.80;;;;;;;8.67;88.17;101583.83;107312;1281;62895;-79
2022/06/14 00:41:50;;;;;;;8.10;2.90;;;;;;;8.64;88.49;101584.63;107397;1280;75988;-79
2022/06/14 00:44:21;;;;;;;7.20;1.80;;;;;;;8.61;88.75;101579.63;107457;1279;70692;-79
2022/06/14 00:47:01;;;;;;;3.30;1.80;;;;;;;8.58;88.63;101580.08;107634;1279;74026;-79
2022/06/14 00:49:33;;;;;;;4.30;1.60;;;;;;;8.53;88.86;101582.06;107555;1279;61356;-79
2022/06/14 00:52:27;;;;;;;6.00;2.50;;;;;;;8.50;89.03;101580.41;107772;1279;61094;-79
2022/06/14 00:55:04;;;;;;;6.00;2.00;;;;;;;8.47;89.63;101575.77;107391;1282;76180;-79
2022/06/14 00:57:43;;;;;;;4.40;2.00;;;;;;;8.46;90.10;101579.16;107911;1281;70526;-80
2022/06/14 01:00:17;;;;;;;6.40;2.20;;;;;;;8.45;89.92;101575.03;107683;1281;72967;-80
2022/06/14 01:02:54;;;;;;;6.00;2.20;;;;;;;8.44;90.47;101569.65;107607;1279;61710;-80
2022/06/14 01:06:05;;;;;;;8.30;2.60;;;;;;;8.44;90.52;101565.77;107593;1279;62102;-80
2022/06/14 01:08:25;;;;;;;6.50;2.40;;;;;;;8.45;90.19;101564.48;107650;1279;77920;-80
2022/06/14 01:10:52;;;;;;;7.20;3.30;;;;;;;8.45;90.60;101563.80;107584;1280;72477;-80
2022/06/14 01:13:21;;;;;;;6.40;2.00;;;;;;;8.45;90.50;101555.64;107659;1279;74223;-80
2022/06/14 01:15:50;;;;;;;4.80;1.60;;;;;;;8.44;90.18;101561.02;107572;1279;62264;-80
2022/06/14 01:18:17;;;;;;;5.50;2.50;;;;;;;8.42;89.91;101568.47;107580;1279;60790;-79
2022/06/14 01:20:44;;;;;;;6.50;2.20;;;;;;;8.39;89.93;101572.56;107608;1279;76120;-80
2022/06/14 01:23:14;;;;;;;6.50;2.10;;;;;;;8.36;90.24;101570.49;107512;1279;72603;-80
2022/06/14 01:25:45;;;;;;;5.50;2.20;;;;;;;8.33;90.17;101575.77;107610;1279;74105;-80
2022/06/14 01:28:14;;;;;;;4.00;1.80;;;;;;;8.28;90.00;101583.05;107660;1279;61270;-80
2022/06/14 01:30:49;;;;;;;5.00;2.20;;;;;;;8.25;90.33;101586.21;107592;1279;60472;-79
2022/06/14 01:33:18;;;;;;;;;;;;;;;8.21;90.61;101575.59;107329;1280;74686;-79
2022/06/14 01:35:51;;;;;;;5.00;1.90;;;;;;;8.16;90.82;101570.54;107659;1280;72605;-80
2022/06/14 01:38:18;;;;;;;2.60;1.60;;;;;;;8.12;90.65;101569.84;107350;1279;74027;-80
2022/06/14 01:41:02;;;;;;;5.70;2.00;;;;;;;8.08;90.95;101572.67;107647;1279;62456;-80
2022/06/14 01:43:43;;;;;;;5.40;1.90;;;;;;;8.04;91.12;101563.02;107664;1279;60602;-80
2022/06/14 01:46:27;;;;;;;3.00;1.70;;;;;;;8.01;91.49;101563.10;107748;1279;75509;-80
2022/06/14 01:51:50;;;;;;;3.30;1.90;;;;;;;7.98;91.76;101567.58;107597;1279;71187;-80
2022/06/14 01:52:30;;;;;;;8.20;2.10;;;;;;;7.95;92.08;101559.61;107541;1279;73115;-83
2022/06/14 01:55:35;;;;;;;6.30;2.40;;;;;;;7.91;92.08;101566.64;107657;1279;61599;-79
2022/06/14 01:58:16;;;;;;;5.10;1.80;;;;;;;7.88;92.68;101560.56;107101;1279;60407;-80
2022/06/14 02:01:23;;;;;;;5.60;1.90;;;;;;;7.85;92.71;101555.70;107561;1279;74796;-80
2022/06/14 02:06:47;;;;;;;5.70;1.90;;;;;;;7.80;92.97;101553.94;107468;1282;72956;-80
2022/06/14 02:09:24;;;;;;;5.60;2.10;;;;;;;7.77;93.35;101553.27;107737;1279;62042;-80
2022/06/14 02:11:51;;;;;;;3.80;2.20;;;;;;;7.75;93.31;101555.73;107590;1279;60765;-80
2022/06/14 02:14:36;;;;;;;5.80;2.20;;;;;;;7.72;93.59;101551.02;107702;1279;74955;-79
2022/06/14 02:17:14;;;;;;;6.80;2.20;;;;;;;7.70;93.70;101556.66;107497;1279;70406;-79
2022/06/14 02:19:48;;;;;;;5.50;2.70;;;;;;;7.68;94.17;101556.64;107556;1280;72413;-79
2022/06/14 02:22:20;;;;;;;8.30;2.90;;;;;;;7.66;94.18;101560.20;107622;1279;61538;-80
2022/06/14 02:24:51;;;;;;;9.30;4.10;;;;;;;7.64;94.11;101562.14;107458;1279;61798;-80
2022/06/14 02:27:32;;;;;;;8.00;3.50;;;;;;;7.62;94.44;101562.48;107610;1279;76013;-80
2022/06/14 02:30:24;;;;;;;9.30;3.30;;;;;;;7.60;94.65;101565.11;107116;1282;71649;-80
2022/06/14 02:32:59;;;;;;;6.20;2.60;;;;;;;7.58;95.19;101565.69;107667;1279;72975;-79
2022/06/14 02:35:34;;;;;;;7.60;3.10;;;;;;;7.56;95.42;101569.91;107461;1279;61597;-80
2022/06/14 02:38:15;;;;;;;6.40;2.80;;;;;;;7.54;95.65;101574.40;107568;1281;61269;-80
2022/06/14 02:41:01;;;;;;;7.70;2.70;;;;;;;7.51;96.03;101573.63;107561;1279;75976;-80
2022/06/14 02:43:44;;;;;;;5.80;2.80;;;;;;;7.49;96.04;101569.58;107615;1280;72338;-80
2022/06/14 02:46:30;;;;;;;9.40;3.00;;;;;;;7.47;96.10;101567.48;107575;1281;72973;-79
2022/06/14 02:49:07;;;;;;;5.00;2.30;;;;;;;7.45;96.92;101570.17;107708;1278;62439;-80
2022/06/14 02:51:58;;;;;;;7.30;2.40;;;;;;;7.43;96.90;101573.83;107599;1279;61058;-79
2022/06/14 02:54:31;;;;;;;5.50;2.70;;;;;;;7.41;97.43;101572.80;107857;1279;75005;-79
2022/06/14 02:57:09;;;;;;;6.60;2.80;;;;;;;7.40;97.65;101573.79;107405;1281;72648;-80
2022/06/14 02:59:42;;;;;;;6.20;2.90;;;;;;;7.38;97.65;101566.75;107238;1279;73985;-80
2022/06/14 03:02:18;;;;;;;4.10;3.00;;;;;;;7.35;97.84;101560.58;107381;1279;61558;-81
2022/06/14 03:04:57;;;;;;;7.50;3.30;;;;;;;7.34;98.07;101560.33;107558;1279;61148;-80
2022/06/14 03:07:46;;;;;;;8.60;2.70;;;;;;;7.33;98.37;101560.77;107565;1281;76285;-80
2022/06/14 03:10:13;;;;;;;8.30;3.00;;;;;;;7.32;98.91;101564.16;107593;1279;73047;-79
2022/06/14 03:12:52;;;;;;;5.50;2.40;;;;;;;7.32;99.45;101569.67;107708;1279;73623;-79
2022/06/14 03:15:18;;;;;;;6.40;2.40;;;;;;;7.31;99.62;101569.70;107553;1279;61776;-80
2022/06/14 03:18:36;;;;;;;6.60;3.60;;;;;;;7.32;99.66;101572.05;107580;1279;59567;-79
2022/06/14 03:21:24;;;;;;;5.40;2.50;;;;;;;7.36;99.77;101575.66;107205;1279;74855;-79
2022/06/14 03:24:07;;;;;;;8.70;2.60;;;;;;;7.38;99.90;101567.52;107732;1279;71443;-79
2022/06/14 03:26:55;;;;;;;4.50;2.30;;;;;;;7.41;99.88;101571.16;107505;1279;71894;-79
2022/06/14 03:29:41;;;;;;;6.90;2.60;;;;;;;7.45;99.63;101575.27;107514;1279;60902;-79
2022/06/14 03:32:25;;;;;;;5.70;2.40;;;;;;;7.49;99.69;101571.91;107663;1279;61926;-79
2022/06/14 03:35:00;;;;;;;5.70;2.60;;;;;;;7.54;99.85;101577.11;107584;1280;74955;-80
2022/06/14 03:37:27;;;;;;;4.70;2.20;;;;;;;7.60;99.61;101575.00;107812;1279;71801;-79
2022/06/14 03:40:00;;;;;;;3.80;2.50;;;;;;;7.65;99.60;101580.34;107750;1279;73218;-80
2022/06/14 03:42:27;;;;;;;6.80;2.20;;;;;;;7.73;99.53;101581.39;107670;1279;61817;-80
2022/06/14 03:44:54;;;;;;;5.60;2.20;;;;;;;7.82;99.31;101575.90;107434;1280;61261;-80
2022/06/14 03:47:27;;;;;;;6.60;2.10;;;;;;;7.90;99.21;101578.85;107492;1279;75464;-80
2022/06/14 03:50:02;;;;;;;5.70;2.30;;;;;;;7.98;99.27;101582.38;107617;1280;72935;-80
2022/06/14 03:52:37;;;;;;;5.10;1.90;;;;;;;8.07;99.08;101584.73;107792;1279;75481;-79
2022/06/14 03:55:13;;;;;;;5.00;2.70;;;;;;;8.15;98.93;101584.93;107388;1279;61979;-79
2022/06/14 03:57:59;;;;;;;5.70;2.40;;;;;;;8.25;98.63;101583.02;107744;1277;60431;-79
2022/06/14 04:00:29;;;;;;;5.20;2.00;;;;;;;8.34;98.50;101586.26;107626;1279;76547;-80
2022/06/14 04:03:12;;;;;;;4.80;2.30;;;;;;;8.42;97.78;101588.91;107676;1279;72465;-80
2022/06/14 04:05:48;;;;;;;19.80;3.10;;;;;;;8.51;98.16;101592.33;107688;1279;73966;-80
2022/06/14 04:08:42;;;;;;;4.80;2.50;;;;;;;8.58;97.46;101591.82;107562;1281;62116;-80
2022/06/14 04:11:36;;;;;;;6.80;2.30;;;;;;;8.67;97.28;101592.46;107724;1279;59544;-80
2022/06/14 04:14:29;;;;;;;6.40;2.20;;;;;;;8.75;96.77;101591.72;107713;1277;76156;-80
2022/06/14 04:17:16;;;;;;;5.20;2.20;;;;;;;8.84;96.66;101588.27;107728;1279;71012;-79
2022/06/14 04:19:50;;;;;;;5.50;2.30;;;;;;;8.92;96.20;101584.35;107691;1279;73055;-79
2022/06/14 04:22:31;;;;;;;8.50;3.20;;;;;;;9.00;95.79;101583.77;107669;1279;62394;-87
2022/06/14 04:28:00;;;;;;;;;;;;;;;9.20;95.59;101582.98;107592;1281;73404;-88
2022/06/14 04:30:46;;;;;;;4.00;1.90;;;;;;;9.27;95.16;101576.80;107426;1279;71616;-88
2022/06/14 04:33:30;;;;;;;4.50;2.70;;;;;;;9.36;94.80;101575.25;107636;1280;74092;-88
2022/06/14 04:36:15;;;;;;;11.30;2.90;;;;;;;9.46;94.69;101578.61;107362;1282;62517;-88
2022/06/14 04:38:48;;;;;;;7.90;3.70;;;;;;;9.55;94.19;101584.38;107522;1282;60436;-87
2022/06/14 04:41:30;;;;;;;10.30;5.60;;;;;;;9.64;94.46;101587.29;107694;1281;75002;-87
2022/06/14 04:44:15;;;;;;;20.10;10.60;;;;;;;9.73;94.28;101587.98;107285;1281;72675;-87
2022/06/14 04:46:58;;;;;;;6.10;2.40;;;;;;;9.86;94.28;101593.65;107628;1281;72937;-87
2022/06/14 04:49:32;;;;;;;6.40;2.50;;;;;;;9.97;93.64;101595.63;107415;1281;61403;-87
2022/06/14 04:52:24;;;;;;;4.70;2.10;;;;;;;10.06;93.21;101596.30;107295;1282;61182;-87
2022/06/14 04:54:55;;;;;;;2.60;1.50;;;;;;;10.14;92.81;101592.50;107298;1282;75026;-87
2022/06/14 04:57:43;;;;;;;3.30;1.90;;;;;;;10.22;92.41;101593.14;107341;1282;72258;-87
2022/06/14 05:00:27;;;;;;;6.30;2.50;;;;;;;10.30;92.32;101595.59;107554;1281;72999;-88
2022/06/14 05:03:04;;;;;;;5.70;2.30;;;;;;;10.36;91.84;101587.39;107350;1282;62306;-89
2022/06/14 05:05:42;;;;;;;9.20;2.00;;;;;;;10.43;91.62;101591.11;107614;1282;60595;-88
2022/06/14 05:08:19;;;;;;;7.90;1.90;;;;;;;10.51;91.36;101594.23;107410;1281;75661;-88
2022/06/14 05:10:53;;;;;;;8.40;2.60;;;;;;;10.61;90.91;101596.95;107793;1281;71524;-87
2022/06/14 05:13:27;;;;;;;5.20;2.00;;;;;;;10.71;90.68;101599.19;107485;1281;72358;-88
2022/06/14 05:16:04;;;;;;;7.10;2.00;;;;;;;10.82;90.48;101600.70;107526;1281;61403;-88
2022/06/14 05:18:57;;;;;;;3.30;2.00;;;;;;;10.92;90.23;101597.92;107538;1282;60045;-88
2022/06/14 05:21:30;;;;;;;7.90;2.40;;;;;;;11.03;89.46;101596.77;107431;1282;73638;-88
2022/06/14 05:23:59;;;;;;;6.30;2.30;;;;;;;11.10;89.02;101602.80;107158;1283;71562;-88
2022/06/14 05:26:29;;;;;;;7.40;2.50;;;;;;;11.18;88.68;101606.27;107469;1282;72259;-88
2022/06/14 05:29:11;;;;;;;7.60;2.70;;;;;;;11.28;87.88;101608.44;107931;1281;62694;-87
2022/06/14 05:31:43;;;;;;;7.20;2.40;;;;;;;11.41;87.83;101608.88;107356;1281;61234;-87
2022/06/14 05:34:33;;;;;;;6.60;2.40;;;;;;;11.53;87.07;101606.35;107363;1281;74956;-88
2022/06/14 05:37:11;;;;;;;7.50;2.60;;;;;;;11.61;86.29;101603.77;107614;1281;72735;-88
2022/06/14 05:39:47;;;;;;;5.10;2.00;;;;;;;11.74;86.14;101604.34;107151;1284;74012;-88
2022/06/14 05:42:21;;;;;;;11.80;3.50;;;;;;;11.86;85.32;101610.27;107583;1282;62302;-88
2022/06/14 05:44:54;;;;;;;7.50;2.50;;;;;;;11.95;84.86;101610.04;107291;1282;60617;-87
2022/06/14 05:47:37;;;;;;;3.80;2.00;;;;;;;12.03;84.39;101608.10;107519;1282;74898;-87
2022/06/14 05:50:16;;;;;;;3.00;2.20;;;;;;;12.10;83.90;101605.42;107449;1283;71531;-88
2022/06/14 05:52:45;;;;;;;8.60;3.80;;;;;;;12.16;83.43;101613.81;107233;1282;73446;-88
2022/06/14 05:55:15;;;;;;;8.30;3.70;;;;;;;12.22;83.54;101610.30;107265;1284;61969;-88
2022/06/14 05:57:57;;;;;;;4.60;2.60;;;;;;;12.30;83.40;101609.50;107581;1281;61819;-88
2022/06/14 06:00:36;;;;;;;5.60;3.00;;;;;;;12.40;83.55;101608.61;107499;1281;74987;-88
2022/06/14 06:03:31;;;;;;;6.10;2.80;;;;;;;12.52;82.99;101615.34;107822;1284;71382;-89
2022/06/14 06:06:19;;;;;;;8.10;4.30;;;;;;;12.60;82.57;101612.09;108028;1281;72942;-88
2022/06/14 06:08:55;;;;;;;8.30;2.80;;;;;;;12.70;81.64;101612.71;107956;1283;62296;-88
2022/06/14 06:11:37;;;;;;;5.60;2.50;;;;;;;12.75;80.71;101616.55;107914;1284;60268;-88
2022/06/14 06:14:19;;;;;;;5.50;2.20;;;;;;;12.86;80.09;101622.84;108154;1282;75041;-89
2022/06/14 06:17:03;;;;;;;3.90;1.90;;;;;;;12.92;79.10;101623.73;107887;1282;71532;-88
2022/06/14 06:20:00;;;;;;;7.80;3.40;;;;;;;12.99;78.62;101628.48;107766;1281;72697;-87
2022/06/14 06:22:38;;;;;;;7.90;2.60;;;;;;;13.16;78.75;101631.79;107671;1283;61094;-88
2022/06/14 06:25:15;;;;;;;18.80;11.40;;;;;;;13.33;78.14;101632.95;107699;1281;60177;-88
2022/06/14 06:27:46;;;;;;;7.10;2.90;;;;;;;13.48;77.41;101632.36;107697;1281;75142;-87
2022/06/14 06:30:17;;;;;;;3.90;1.30;;;;;;;13.62;76.64;101633.35;107125;1281;71494;-87
2022/06/14 06:32:44;;;;;;;7.80;3.20;;;;;;;13.69;75.41;101636.12;107590;1281;73127;-86
2022/06/14 06:35:13;;;;;;;10.80;3.90;;;;;;;13.75;74.96;101630.31;107534;1281;61014;-87
2022/06/14 06:37:55;;;;;;;8.60;2.90;;;;;;;13.78;74.29;101629.95;107555;1281;62262;-86
2022/06/14 06:40:24;;;;;;;8.30;3.60;;;;;;;13.90;74.77;101631.80;107654;1281;76090;-87
2022/06/14 06:43:09;;;;;;;8.70;2.40;;;;;;;14.12;73.31;101630.48;107458;1281;69482;-86
2022/06/14 06:45:44;;;;;;;7.10;2.40;;;;;;;14.38;72.60;101626.53;107449;1281;72942;-86
2022/06/14 06:48:21;;;;;;;5.70;2.20;;;;;;;14.59;71.60;101626.49;107410;1281;61222;-87
2022/06/14 06:51:01;;;;;;;7.80;3.50;;;;;;;14.84;70.92;101628.41;107294;1281;59755;-87
2022/06/14 06:53:37;;;;;;;7.90;2.20;;;;;;;15.11;69.84;101627.84;107186;1281;75989;-87
2022/06/14 06:56:06;;;;;;;6.60;2.00;;;;;;;15.35;68.47;101631.94;107445;1281;72556;-87
2022/06/14 06:58:36;;;;;;;7.10;2.30;;;;;;;15.48;67.58;101633.20;107202;1282;73655;-87
2022/06/14 07:01:21;;;;;;;5.10;1.50;;;;;;;15.58;66.48;101633.38;107418;1282;62348;-87
2022/06/14 07:04:09;;;;;;;7.20;2.70;;;;;;;15.68;65.05;101631.79;107366;1282;60476;-87
2022/06/14 07:06:53;;;;;;;5.90;1.80;;;;;;;15.84;64.04;101633.30;107400;1281;75418;-87
2022/06/14 07:09:27;;;;;;;7.50;1.70;;;;;;;15.93;63.64;101627.84;107044;1281;71423;-87
2022/06/14 07:12:06;;;;;;;4.50;1.40;;;;;;;15.97;62.19;101626.58;107469;1281;72952;-87
2022/06/14 07:14:59;;;;;;;6.70;1.40;;;;;;;15.89;60.19;101626.08;107190;1282;62318;-87
2022/06/14 07:17:32;;;;;;;7.20;1.40;;;;;;;15.95;60.62;101620.22;107195;1282;59419;-87
2022/06/14 07:20:30;;;;;;;7.20;1.80;;;;;;;16.11;61.27;101618.63;107589;1282;75168;-87
2022/06/14 07:23:12;;;;;;;5.00;1.50;;;;;;;16.39;61.01;101617.29;106919;1282;72379;-87
2022/06/14 07:25:58;;;;;;;5.50;1.30;;;;;;;16.61;59.48;101620.05;107427;1281;73970;-87
2022/06/14 07:28:40;;;;;;;5.10;1.90;;;;;;;16.63;58.68;101620.85;107275;1282;62226;-87
2022/06/14 07:31:17;;;;;;;4.40;1.20;;;;;;;16.75;59.48;101620.01;107542;1282;61833;-87
2022/06/14 07:33:44;;;;;;;5.30;1.20;;;;;;;16.90;57.62;101622.63;107224;1282;74956;-87
2022/06/14 07:36:24;;;;;;;6.30;2.00;;;;;;;16.99;57.06;101615.86;107596;1281;71347;-87
2022/06/14 07:39:04;;;;;;;5.20;2.00;;;;;;;17.16;56.62;101619.07;107197;1281;72977;-87
2022/06/14 07:41:57;;;;;;;6.40;1.20;;;;;;;17.23;54.23;101620.38;107644;1280;61925;-86
2022/06/14 07:44:47;;;;;;;6.10;1.20;;;;;;;17.16;53.44;101618.53;107417;1281;60269;-86
2022/06/14 07:47:24;;;;;;;5.70;1.40;;;;;;;17.14;53.95;101611.09;107615;1281;76367;-86
2022/06/14 07:49:56;;;;;;;6.80;1.60;;;;;;;17.21;53.75;101614.67;107802;1281;70714;-87
2022/06/14 07:52:30;;;;;;;6.00;1.60;;;;;;;17.32;53.43;101612.54;106908;1282;74219;-87
2022/06/14 07:55:20;;;;;;;4.30;1.10;;;;;;;17.45;53.88;101615.08;107176;1281;60412;-87
2022/06/14 07:57:53;;;;;;;6.70;1.40;;;;;;;17.49;52.98;101615.71;107371;1281;60996;-87
2022/06/14 08:03:28;;;;;;;6.30;1.50;;;;;;;17.50;53.44;101617.95;107567;1281;72054;-87
2022/06/14 08:05:57;;;;;;;5.70;1.80;;;;;;;17.67;54.00;101613.29;107075;1282;74348;-86
2022/06/14 08:08:30;;;;;;;5.20;1.40;;;;;;;17.72;53.20;101617.06;107397;1281;61100;-87
2022/06/14 08:11:03;;;;;;;6.00;1.10;;;;;;;17.66;52.53;101618.52;107354;1281;60655;-87
2022/06/14 08:13:43;;;;;;;5.10;1.90;;;;;;;17.67;53.08;101615.92;107387;1281;74732;-86
2022/06/14 08:16:12;;;;;;;6.30;3.00;;;;;;;17.66;52.68;101619.45;107245;1282;70426;-86
2022/06/14 08:18:48;;;;;;;5.70;1.40;;;;;;;17.69;52.79;101615.28;107260;1281;73095;-88
2022/06/14 08:21:43;;;;;;;7.00;2.00;;;;;;;17.68;52.22;101622.83;107170;1281;60632;-87
2022/06/14 08:24:23;;;;;;;5.90;1.60;;;;;;;17.65;52.33;101618.60;107216;1280;62684;-87
2022/06/14 08:27:01;;;;;;;5.90;1.30;;;;;;;17.76;52.86;101614.27;107287;1282;76172;-86
2022/06/14 08:29:41;;;;;;;5.20;2.10;;;;;;;18.09;52.08;101615.09;107450;1281;70576;-86
2022/06/14 08:32:17;;;;;;;6.50;3.50;;;;;;;18.33;51.99;101615.39;107300;1282;73373;-87
2022/06/14 08:34:50;;;;;;;7.70;2.70;;;;;;;18.42;51.10;101618.71;107298;1280;61538;-86
2022/06/14 08:37:27;;;;;;;5.00;1.70;;;;;;;18.40;50.42;101620.45;107224;1282;61338;-87
2022/06/14 08:40:20;;;;;;;7.50;1.80;;;;;;;18.32;49.12;101618.20;107284;1280;75670;-86
2022/06/14 08:42:53;;;;;;;4.20;1.10;;;;;;;18.24;49.82;101623.06;107088;1282;71400;-86
2022/06/14 08:45:57;;;;;;;4.70;1.40;;;;;;;18.01;49.56;101624.56;107246;1282;72024;-85
2022/06/14 08:48:54;;;;;;;5.80;1.70;;;;;;;18.05;50.91;101622.71;103497;1281;5214202;-86
2022/06/14 08:51:34;;;;;;;5.00;1.50;;;;;;;18.33;50.05;101620.31;107277;1282;59620;-87
2022/06/14 08:54:40;;;;;;;5.40;1.30;;;;;;;18.56;49.47;101622.36;107108;1282;76143;-87
2022/06/14 08:57:56;;;;;;;4.40;1.20;;;;;;;18.60;48.64;101618.40;107276;1282;71557;-86
2022/06/14 09:00:45;;;;;;;4.40;1.20;;;;;;;18.34;48.14;101628.25;106935;1282;75548;-85
2022/06/14 09:03:44;;;;;;;4.60;1.20;;;;;;;18.03;47.85;101632.95;107150;1282;62323;-86
2022/06/14 09:06:11;;;;;;;2.80;1.20;;;;;;;17.84;48.27;101628.45;107221;1281;61172;-85
2022/06/14 09:09:15;;;;;;;5.30;1.30;;;;;;;18.03;48.76;101625.64;107111;1281;75949;-86
2022/06/14 09:12:02;;;;;;;5.10;1.20;;;;;;;18.30;47.93;101620.95;107207;1281;72143;-87
2022/06/14 09:14:59;;;;;;;5.90;1.60;;;;;;;18.30;47.96;101611.62;107234;1282;73038;-86
2022/06/14 09:17:54;;;;;;;4.00;1.40;;;;;;;18.32;47.69;101619.23;107230;1282;60372;-86
2022/06/14 09:20:55;;;;;;;6.80;1.60;;;;;;;18.01;47.38;101622.41;107286;1281;60469;-87
2022/06/14 09:23:31;;;;;;;4.90;1.50;;;;;;;17.86;48.16;101615.91;107165;1281;74926;-87
2022/06/14 09:26:59;;;;;;;4.00;1.30;;;;;;;18.09;48.59;101614.22;107380;1281;71335;-86
2022/06/14 09:30:04;;;;;;;3.50;1.30;;;;;;;18.53;47.20;101611.41;106381;1287;73832;-86
2022/06/14 09:35:54;;;;;;;4.90;1.60;;;;;;;18.78;45.28;101600.27;107317;1279;61586;-86
2022/06/14 09:38:46;;;;;;;4.60;1.20;;;;;;;18.57;46.25;101608.80;107230;1281;74900;-86
2022/06/14 09:41:22;;;;;;;5.60;1.40;;;;;;;18.38;47.15;101613.51;107453;1281;72697;-86
2022/06/14 09:44:21;;;;;;;5.10;1.10;;;;;;;18.24;46.91;101613.02;106929;1282;73734;-86
2022/06/14 09:47:06;;;;;;;4.60;1.20;;;;;;;18.34;46.91;101609.36;107280;1282;61327;-86
2022/06/14 09:49:45;;;;;;;4.10;1.10;;;;;;;18.52;46.01;101600.00;107182;1281;61283;-87
2022/06/14 09:52:33;;;;;;;4.20;1.30;;;;;;;18.58;45.32;101607.73;107053;1282;74992;-86
2022/06/14 09:55:29;;;;;;;4.70;1.50;;;;;;;18.54;45.63;101601.48;107332;1282;74062;-85
2022/06/14 09:57:56;;;;;;;4.30;1.30;;;;;;;18.50;45.73;101609.50;107167;1281;73243;-86
2022/06/14 10:00:41;;;;;;;3.60;1.20;;;;;;;18.45;45.24;101613.05;107481;1281;61867;-86
2022/06/14 10:03:43;;;;;;;3.80;1.40;;;;;;;18.22;45.20;101611.48;107224;1282;60352;-86
2022/06/14 10:06:41;;;;;;;4.20;1.20;;;;;;;18.14;46.12;101607.86;107034;1282;74918;-86
2022/06/14 10:09:26;;;;;;;5.90;1.20;;;;;;;18.14;46.69;101607.98;107334;1281;71599;-87
2022/06/14 10:12:11;;;;;;;3.70;1.00;;;;;;;18.21;46.06;101606.33;107246;1281;75276;-87
2022/06/14 10:14:57;;;;;;;4.00;1.30;;;;;;;18.37;46.32;101610.27;107346;1281;61222;-87
2022/06/14 10:17:49;;;;;;;4.20;1.60;;;;;;;18.39;46.11;101605.48;107440;1281;61110;-87
2022/06/14 10:20:31;;;;;;;6.70;1.60;;;;;;;18.52;45.69;101600.99;107185;1281;75278;-87
2022/06/14 10:23:12;;;;;;;6.40;1.20;;;;;;;18.61;45.41;101597.33;107280;1281;71966;-86
2022/06/14 10:29:22;;;;;;;3.80;1.40;;;;;;;19.37;44.74;101593.67;107258;1282;60678;-87
2022/06/14 10:32:02;;;;;;;4.00;1.40;;;;;;;19.57;43.35;101602.54;107170;1282;61364;-86
2022/06/14 10:35:01;;;;;;;3.40;1.30;;;;;;;19.36;43.09;101603.68;107259;1281;76716;-86
2022/06/14 10:38:04;;;;;;;3.70;1.20;;;;;;;19.17;43.08;101604.80;107316;1282;71584;-86
2022/06/14 10:40:44;;;;;;;3.80;1.10;;;;;;;19.16;42.95;101599.33;107630;1280;74112;-87
2022/06/14 10:43:31;;;;;;;3.80;1.40;;;;;;;19.15;42.53;101604.22;107438;1281;62093;-86
2022/06/14 10:46:24;;;;;;;4.40;1.60;;;;;;;19.16;42.59;101597.44;107327;1281;60143;-87
2022/06/14 10:49:37;;;;;;;3.30;1.00;;;;;;;19.21;42.71;101598.08;107298;1282;76294;-87
2022/06/14 10:52:41;;;;;;;3.40;1.10;;;;;;;19.25;41.74;101596.63;107524;1281;71094;-87
2022/06/14 10:55:45;;;;;;;3.80;1.20;;;;;;;19.35;42.14;101594.77;107552;1281;74359;-87
2022/06/14 10:58:41;;;;;;;2.90;0.90;;;;;;;19.81;42.57;101587.73;107415;1281;60646;-86
2022/06/14 11:01:16;;;;;;;3.10;1.00;;;;;;;20.17;40.74;101584.55;107420;1281;60823;-87
2022/06/14 11:03:55;;;;;;;3.40;1.20;;;;;;;20.38;40.05;101579.92;107234;1281;74852;-87
2022/06/14 11:07:07;;;;;;;5.20;1.70;;;;;;;20.41;41.05;101583.93;107020;1281;72872;-87
2022/06/14 11:09:37;;;;;;;5.10;1.20;;;;;;;20.34;41.55;101591.23;107156;1282;73612;-87
2022/06/14 11:12:22;;;;;;;5.10;1.30;;;;;;;20.13;42.18;101587.85;107323;1281;59501;-87
2022/06/14 11:15:01;;;;;;;6.90;1.60;;;;;;;19.81;43.05;101595.27;107254;1281;61969;-87
2022/06/14 11:18:01;;;;;;;4.20;1.30;;;;;;;19.70;43.44;101592.52;107492;1281;75443;-87
2022/06/14 11:20:58;;;;;;;5.20;1.40;;;;;;;19.56;43.83;101591.11;107503;1281;73203;-88
2022/06/14 11:23:55;;;;;;;5.20;1.40;;;;;;;19.53;44.17;101589.46;107473;1281;73794;-87
2022/06/14 11:26:54;;;;;;;7.70;1.90;;;;;;;19.53;44.54;101589.52;107313;1281;62224;-88
2022/06/14 11:29:39;;;;;;;4.00;1.20;;;;;;;19.61;44.18;101594.08;107213;1281;60636;-87
2022/06/14 11:32:29;;;;;;;5.00;1.20;;;;;;;19.59;43.07;101587.09;107523;1281;74966;-87
2022/06/14 11:35:04;;;;;;;5.40;2.10;;;;;;;19.50;42.94;101587.16;107371;1281;71660;-87
2022/06/14 11:37:53;;;;;;;4.00;1.50;;;;;;;19.66;43.03;101585.54;107584;1280;72964;-87
2022/06/14 11:40:32;;;;;;;4.80;1.80;;;;;;;19.82;42.13;101582.04;107404;1281;61158;-87
2022/06/14 11:43:17;;;;;;;4.40;1.50;;;;;;;19.90;42.53;101578.29;107403;1281;62465;-87
2022/06/14 11:46:00;;;;;;;3.30;1.20;;;;;;;20.09;41.64;101576.84;107299;1281;75464;-87
2022/06/14 11:48:47;;;;;;;4.40;1.40;;;;;;;20.39;40.53;101572.24;107326;1282;72536;-87
2022/06/14 11:51:47;;;;;;;3.90;1.20;;;;;;;20.96;40.34;101565.45;107558;1281;72988;-86
2022/06/14 11:54:23;;;;;;;5.20;1.50;;;;;;;21.30;39.43;101566.33;107333;1282;60735;-87
2022/06/14 11:57:02;;;;;;;4.80;1.30;;;;;;;21.30;38.66;101567.83;107544;1280;62510;-87
2022/06/14 12:00:06;;;;;;;3.60;1.30;;;;;;;21.36;38.85;101561.96;107180;1282;76170;-87
2022/06/14 12:02:51;;;;;;;3.20;1.20;;;;;;;21.43;38.93;101570.58;107083;1281;71960;-88
2022/06/14 12:05:37;;;;;;;3.60;1.20;;;;;;;21.44;38.46;101566.85;107208;1281;74913;-86
2022/06/14 12:08:25;;;;;;;6.60;1.30;;;;;;;21.52;38.26;101563.57;107423;1281;60607;-87
2022/06/14 12:11:21;;;;;;;5.70;1.30;;;;;;;21.74;38.52;101558.41;107552;1282;60633;-87
2022/06/14 12:14:22;;;;;;;4.50;1.10;;;;;;;21.82;38.02;101561.09;107621;1282;74788;-88
2022/06/14 12:17:22;;;;;;;4.30;1.10;;;;;;;21.78;37.94;101555.33;107759;1281;72438;-88
2022/06/14 12:19:55;;;;;;;4.20;1.20;;;;;;;22.01;38.64;101557.77;107619;1281;73300;-87
2022/06/14 12:22:48;;;;;;;5.40;1.20;;;;;;;22.09;37.80;101555.12;107169;1282;60517;-87
2022/06/14 12:28:56;;;;;;;5.90;1.70;;;;;;;23.51;36.35;101549.53;107099;1282;74734;-87
2022/06/14 12:31:44;;;;;;;4.30;1.10;;;;;;;23.91;35.16;101547.95;107146;1282;70520;-86
2022/06/14 12:34:26;;;;;;;2.50;1.00;;;;;;;24.08;35.01;101539.17;107577;1281;73943;-87
2022/06/14 12:37:18;;;;;;;3.80;1.00;;;;;;;24.17;33.81;101536.57;107279;1282;61063;-87
2022/06/14 12:39:49;;;;;;;3.20;1.10;;;;;;;24.07;33.55;101538.41;107318;1281;61169;-86
2022/06/14 12:42:35;;;;;;;4.30;1.20;;;;;;;24.23;33.23;101533.54;107422;1281;76152;-87